Time;durP1;ratioP1;P1;durP2;ratioP2;P2;SDS_P1;SDS_P2;PMS_P1;PMS_P2;Temp;Humidity;BMP_temperature;BMP_pressure;BME280_temperature;BME280_humidity;BME280_pressure;Samples;Min_cycle;Max_cycle;Signal;HPM_P1;HPM_P2
2023/10/17 00:01:13;;;;;;;5.97;3.72;;;;;;;8.75;46.58;101610.22;5023796;28;20126;-76
2023/10/17 00:03:45;;;;;;;6.43;3.50;;;;;;;8.76;46.42;101611.94;5018137;28;20064;-77
2023/10/17 00:06:16;;;;;;;5.97;3.45;;;;;;;8.75;46.53;101613.81;5019801;28;20091;-77
2023/10/17 00:08:50;;;;;;;6.03;3.47;;;;;;;8.77;46.31;101608.22;5020568;28;20068;-77
2023/10/17 00:11:29;;;;;;;5.50;3.50;;;;;;;8.77;46.80;101597.31;5020569;28;20050;-77
2023/10/17 00:14:07;;;;;;;6.78;3.45;;;;;;;8.77;46.41;101594.59;5023100;28;20140;-78
2023/10/17 00:16:37;;;;;;;6.25;3.50;;;;;;;8.76;46.29;101598.28;5020604;28;20540;-77
2023/10/17 00:19:08;;;;;;;5.78;3.47;;;;;;;8.76;46.64;101603.75;5018923;28;20061;-77
2023/10/17 00:21:37;;;;;;;6.10;3.60;;;;;;;8.75;46.44;101596.56;5020440;28;20596;-77
2023/10/17 00:24:08;;;;;;;5.05;3.20;;;;;;;8.73;46.27;101596.66;5020199;28;20064;-78
2023/10/17 00:26:37;;;;;;;6.45;4.07;;;;;;;8.73;46.23;101599.41;5021622;28;20061;-77
2023/10/17 00:29:08;;;;;;;4.50;3.10;;;;;;;8.73;46.09;101598.53;5021530;28;20081;-78
2023/10/17 00:31:38;;;;;;;;;;;;;;;8.45;47.19;101600.38;5018690;28;20053;-77
2023/10/17 00:34:15;;;;;;;6.40;3.08;;;;;;;8.62;46.29;101600.13;5022408;28;19920;-77
2023/10/17 00:36:50;;;;;;;4.80;2.80;;;;;;;8.66;46.18;101598.06;5020692;28;20049;-77
2023/10/17 00:39:29;;;;;;;5.35;3.20;;;;;;;8.64;46.22;101594.56;5017758;28;20044;-77
2023/10/17 00:42:17;;;;;;;5.45;3.45;;;;;;;8.62;46.29;101604.69;5019357;28;20129;-77
2023/10/17 00:44:47;;;;;;;7.50;3.70;;;;;;;8.60;46.26;101598.47;5018009;28;20417;-77
2023/10/17 00:47:18;;;;;;;5.53;3.55;;;;;;;8.58;46.18;101593.13;5018635;28;20046;-77
2023/10/17 00:49:49;;;;;;;4.78;3.40;;;;;;;8.56;46.39;101586.91;5018991;28;20526;-77
2023/10/17 00:52:25;;;;;;;5.35;3.53;;;;;;;8.57;46.59;101577.75;5014239;28;20120;-78
2023/10/17 00:54:59;;;;;;;6.88;3.28;;;;;;;8.53;46.33;101578.91;5021888;28;20099;-77
2023/10/17 00:57:27;;;;;;;;;;;;;;;8.27;47.26;101582.50;5021542;28;20045;-77
2023/10/17 01:00:08;;;;;;;6.53;3.47;;;;;;;8.48;46.23;101582.94;5015817;28;20356;-77
2023/10/17 01:02:44;;;;;;;4.68;2.92;;;;;;;8.48;46.21;101577.47;5025158;28;20045;-77
2023/10/17 01:05:13;;;;;;;6.45;3.28;;;;;;;8.47;46.59;101578.47;5017787;28;20052;-77
2023/10/17 01:07:41;;;;;;;4.70;3.30;;;;;;;8.46;46.33;101573.97;5014746;28;20046;-77
2023/10/17 01:10:13;;;;;;;5.47;3.08;;;;;;;8.45;46.14;101573.09;5013477;28;20081;-77
2023/10/17 01:12:50;;;;;;;5.28;3.30;;;;;;;8.44;46.25;101567.75;5016987;28;20073;-77
2023/10/17 01:15:21;;;;;;;5.07;3.33;;;;;;;8.44;46.71;101573.19;5021156;28;20473;-77
2023/10/17 01:17:53;;;;;;;5.72;2.72;;;;;;;8.41;46.35;101573.41;5013985;28;20062;-78
2023/10/17 01:20:22;;;;;;;5.47;2.92;;;;;;;8.39;46.32;101572.63;5016512;28;20508;-77
2023/10/17 01:22:55;;;;;;;5.18;2.92;;;;;;;8.40;46.21;101568.94;5010324;28;20038;-77
2023/10/17 01:25:26;;;;;;;4.72;2.83;;;;;;;8.41;46.41;101565.25;5014565;28;20050;-77
2023/10/17 01:27:57;;;;;;;5.90;2.70;;;;;;;8.40;46.22;101566.22;5018277;28;20071;-77
2023/10/17 01:30:29;;;;;;;5.93;2.85;;;;;;;8.39;46.42;101572.63;5017947;28;20115;-77
2023/10/17 01:32:58;;;;;;;5.00;2.83;;;;;;;8.37;46.25;101580.91;5016282;28;20152;-77
2023/10/17 01:35:27;;;;;;;5.88;3.03;;;;;;;8.37;46.43;101574.59;5017877;28;20133;-77
2023/10/17 01:37:56;;;;;;;4.65;2.60;;;;;;;8.37;46.44;101571.84;5014522;28;20128;-77
2023/10/17 01:40:26;;;;;;;8.50;3.95;;;;;;;8.38;46.33;101560.84;5018240;28;20046;-77
2023/10/17 01:42:57;;;;;;;5.13;2.90;;;;;;;8.37;46.56;101556.38;5016840;28;20041;-77
2023/10/17 01:45:29;;;;;;;4.95;2.65;;;;;;;8.37;46.29;101550.03;5011353;28;20073;-76
2023/10/17 01:47:58;;;;;;;4.78;2.88;;;;;;;8.34;46.37;101553.88;5014957;28;20517;-77
2023/10/17 01:50:26;;;;;;;5.13;2.83;;;;;;;8.36;46.34;101553.75;5017042;28;20405;-77
2023/10/17 01:52:54;;;;;;;4.85;2.60;;;;;;;8.36;46.57;101554.63;5017417;28;20041;-77
2023/10/17 01:55:27;;;;;;;4.75;2.70;;;;;;;8.35;46.71;101544.69;5014203;28;20053;-77
2023/10/17 01:57:58;;;;;;;4.50;2.60;;;;;;;8.36;46.27;101551.88;5011815;28;20482;-77
2023/10/17 02:00:37;;;;;;;5.10;2.70;;;;;;;8.37;46.60;101550.03;5009474;28;20107;-76
2023/10/17 02:03:07;;;;;;;4.20;2.20;;;;;;;8.36;46.61;101560.06;5018015;28;20041;-76
2023/10/17 02:05:35;;;;;;;5.05;2.70;;;;;;;8.37;46.66;101560.94;5019097;28;20156;-77
2023/10/17 02:08:05;;;;;;;5.57;2.97;;;;;;;8.38;46.66;101558.13;5014926;28;20516;-77
2023/10/17 02:10:33;;;;;;;4.72;2.80;;;;;;;8.39;46.91;101553.56;5023062;28;20110;-77
2023/10/17 02:13:04;;;;;;;5.25;3.20;;;;;;;8.40;46.51;101549.84;5017844;28;20049;-77
2023/10/17 02:15:34;;;;;;;6.63;3.22;;;;;;;8.39;46.74;101543.50;5015858;28;20088;-77
2023/10/17 02:18:12;;;;;;;7.03;3.97;;;;;;;8.40;46.65;101548.00;5018603;28;20394;-78
2023/10/17 02:20:48;;;;;;;5.20;3.17;;;;;;;8.40;46.59;101548.00;5022374;28;20046;-77
2023/10/17 02:23:20;;;;;;;5.43;3.25;;;;;;;8.41;46.91;101548.88;5019468;28;20557;-76
2023/10/17 02:25:50;;;;;;;6.10;3.13;;;;;;;8.40;46.90;101552.56;5024020;28;20057;-77
2023/10/17 02:28:20;;;;;;;6.13;3.75;;;;;;;8.42;46.82;101554.22;5018702;28;20053;-78
2023/10/17 02:30:48;;;;;;;5.88;3.80;;;;;;;8.42;46.58;101556.09;5020798;28;20061;-77
2023/10/17 02:33:18;;;;;;;5.07;2.90;;;;;;;8.42;46.53;101548.78;5019695;28;20046;-77
2023/10/17 02:36:05;;;;;;;5.20;3.22;;;;;;;8.45;47.19;101547.66;5019580;28;20049;-77
2023/10/17 02:38:33;;;;;;;5.95;3.22;;;;;;;8.41;46.91;101540.69;5017100;28;20056;-77
2023/10/17 02:41:02;;;;;;;7.43;3.20;;;;;;;8.41;46.69;101544.28;5019273;28;20049;-77
2023/10/17 02:43:35;;;;;;;5.97;2.88;;;;;;;8.44;46.82;101538.59;5015699;28;20034;-77
2023/10/17 02:46:05;;;;;;;4.85;2.90;;;;;;;8.42;46.76;101537.00;5016099;28;20069;-77
2023/10/17 02:48:38;;;;;;;4.60;2.85;;;;;;;8.42;46.71;101526.06;5009301;28;20046;-76
2023/10/17 02:51:11;;;;;;;4.20;2.50;;;;;;;8.41;46.52;101527.94;5020479;28;20046;-77
2023/10/17 02:53:43;;;;;;;4.65;2.83;;;;;;;8.40;46.73;101523.44;5013376;28;20096;-76
2023/10/17 02:56:20;;;;;;;4.70;2.53;;;;;;;8.38;46.75;101519.06;5003825;28;20061;-76
2023/10/17 02:58:50;;;;;;;3.92;2.35;;;;;;;8.39;46.50;101518.97;4996470;28;20686;-76
2023/10/17 03:01:19;;;;;;;5.07;2.65;;;;;;;8.38;46.53;101514.50;4995750;28;20470;-76
2023/10/17 03:03:50;;;;;;;4.53;2.60;;;;;;;8.36;46.68;101513.72;5001703;28;20137;-76
2023/10/17 03:06:20;;;;;;;4.38;2.15;;;;;;;8.34;46.60;101512.97;4999069;28;20505;-76
2023/10/17 03:08:51;;;;;;;3.90;2.40;;;;;;;8.34;46.60;101519.25;4994264;28;20058;-76
2023/10/17 03:11:35;;;;;;;3.53;2.40;;;;;;;8.33;47.00;101525.72;5000681;28;20046;-76
2023/10/17 03:14:12;;;;;;;4.72;2.45;;;;;;;8.33;47.02;101520.28;4997595;28;20132;-76
2023/10/17 03:16:40;;;;;;;3.95;2.00;;;;;;;8.31;46.62;101513.16;4998219;28;20042;-76
2023/10/17 03:19:12;;;;;;;4.18;2.20;;;;;;;8.33;46.70;101520.28;5001293;28;20045;-75
2023/10/17 03:21:43;;;;;;;3.50;1.88;;;;;;;8.32;46.90;101518.50;5000935;28;20054;-76
2023/10/17 03:24:13;;;;;;;4.55;1.95;;;;;;;8.31;46.67;101516.75;5000057;28;20054;-76
2023/10/17 03:26:42;;;;;;;3.67;2.08;;;;;;;8.32;46.70;101520.38;4998909;28;20073;-76
2023/10/17 03:29:18;;;;;;;3.60;2.03;;;;;;;8.32;46.97;101523.09;4997308;28;20066;-76
2023/10/17 03:31:48;;;;;;;3.65;2.15;;;;;;;8.30;46.65;101525.03;5003609;28;20050;-75
2023/10/17 03:34:28;;;;;;;3.38;2.08;;;;;;;8.28;46.91;101524.25;5003471;28;20679;-75
2023/10/17 03:37:01;;;;;;;4.75;2.38;;;;;;;8.28;46.72;101516.09;4998115;28;20057;-75
2023/10/17 03:39:50;;;;;;;4.20;2.33;;;;;;;8.29;46.63;101518.72;4999062;28;20054;-76
2023/10/17 03:42:31;;;;;;;3.33;2.03;;;;;;;8.27;46.88;101506.16;5001801;28;20137;-76
2023/10/17 03:45:12;;;;;;;3.67;2.38;;;;;;;8.30;46.59;101505.94;5024212;28;20136;-76
2023/10/17 03:47:40;;;;;;;3.72;2.10;;;;;;;8.28;46.64;101518.81;5016123;28;20053;-76
2023/10/17 03:50:09;;;;;;;4.20;2.30;;;;;;;8.30;46.95;101525.03;5014363;28;20129;-76
2023/10/17 03:52:37;;;;;;;4.32;2.20;;;;;;;8.29;47.03;101526.88;5022094;28;20038;-76
2023/10/17 03:55:10;;;;;;;3.40;2.20;;;;;;;8.29;47.14;101518.72;5015329;28;20065;-75
2023/10/17 03:57:52;;;;;;;;;;;;;;;8.05;47.70;101512.16;5013027;28;20069;-76
2023/10/17 04:00:27;;;;;;;3.58;1.90;;;;;;;8.25;47.03;101516.31;5019037;28;20357;-75
2023/10/17 04:02:55;;;;;;;3.35;1.98;;;;;;;8.27;46.93;101522.50;5018501;28;20057;-75
2023/10/17 04:05:24;;;;;;;3.35;1.90;;;;;;;8.28;46.96;101522.41;5018596;28;20112;-76
2023/10/17 04:07:54;;;;;;;4.22;2.05;;;;;;;8.29;46.91;101534.19;5011780;28;20176;-74
2023/10/17 04:10:22;;;;;;;3.72;2.10;;;;;;;8.29;47.01;101537.81;5014718;28;20044;-75
2023/10/17 04:13:06;;;;;;;3.90;2.25;;;;;;;8.29;47.18;101534.19;5019258;28;20042;-75
2023/10/17 04:15:36;;;;;;;4.20;2.10;;;;;;;8.30;46.91;101535.94;5017876;28;20106;-76
2023/10/17 04:18:05;;;;;;;3.72;2.10;;;;;;;8.31;46.84;101551.34;5014788;28;20045;-76
2023/10/17 04:20:36;;;;;;;3.95;2.40;;;;;;;8.29;47.18;101548.72;5011429;28;20049;-75
2023/10/17 04:23:05;;;;;;;3.67;2.10;;;;;;;8.30;47.13;101539.56;5021496;28;20489;-76
2023/10/17 04:25:37;;;;;;;4.20;2.40;;;;;;;8.30;46.95;101530.50;5019921;28;20049;-76
2023/10/17 04:28:06;;;;;;;3.40;2.03;;;;;;;8.29;46.91;101526.00;5016936;28;20072;-76
2023/10/17 04:30:38;;;;;;;3.15;2.17;;;;;;;8.29;47.13;101524.16;5019455;28;20041;-76
2023/10/17 04:33:12;;;;;;;4.03;2.10;;;;;;;8.28;47.19;101522.41;5015488;28;20085;-76
2023/10/17 04:35:46;;;;;;;4.43;2.45;;;;;;;8.29;47.05;101526.00;5023566;28;20065;-76
2023/10/17 04:38:19;;;;;;;4.22;2.20;;;;;;;8.27;46.93;101523.38;5015039;28;20045;-75
2023/10/17 04:41:02;;;;;;;3.85;2.00;;;;;;;8.29;46.97;101521.44;5013079;28;20571;-75
2023/10/17 04:43:45;;;;;;;5.05;2.30;;;;;;;8.25;46.95;101521.75;5010118;28;20077;-76
2023/10/17 04:46:16;;;;;;;4.63;2.40;;;;;;;8.25;46.95;101525.38;5011552;28;20053;-75
2023/10/17 04:48:47;;;;;;;4.00;1.95;;;;;;;8.26;46.96;101518.03;5014610;28;20092;-76
2023/10/17 04:51:21;;;;;;;4.63;2.00;;;;;;;8.26;47.02;101516.19;5017492;28;20057;-76
2023/10/17 04:53:49;;;;;;;4.05;2.17;;;;;;;8.25;47.03;101511.72;5016256;28;20078;-76
2023/10/17 04:56:18;;;;;;;2.88;1.92;;;;;;;8.27;46.98;101506.16;5020203;28;20129;-76
2023/10/17 04:58:54;;;;;;;3.47;2.03;;;;;;;8.26;46.88;101504.41;5018821;28;20104;-76
2023/10/17 05:01:36;;;;;;;4.13;2.20;;;;;;;8.26;46.86;101501.66;5016142;28;20041;-76
2023/10/17 05:04:20;;;;;;;3.42;1.98;;;;;;;8.22;47.10;101497.41;5013281;28;20053;-77
2023/10/17 06:16:51;;;;;;;3.97;2.08;;;;;;;8.13;46.81;101544.34;4994145;28;20046;-75
2023/10/17 06:19:24;;;;;;;3.85;2.10;;;;;;;8.13;46.85;101541.63;5007619;28;20060;-75
2023/10/17 06:26:03;;;;;;;3.38;2.17;;;;;;;8.16;47.10;101546.91;4995751;28;20536;-76
2023/10/17 06:30:45;;;;;;;3.92;2.10;;;;;;;8.16;46.67;101549.63;4992802;28;20129;-76
2023/10/17 06:33:19;;;;;;;5.30;2.03;;;;;;;8.17;46.79;101548.66;4992510;28;20092;-76
2023/10/17 06:35:52;;;;;;;4.13;2.00;;;;;;;8.18;46.99;101553.13;4991522;28;20120;-75
2023/10/17 06:38:27;;;;;;;3.45;1.88;;;;;;;8.18;46.93;101559.44;4994040;28;20413;-76
2023/10/17 06:41:11;;;;;;;4.53;2.33;;;;;;;8.20;46.42;101562.94;4994616;28;20141;-76
2023/10/17 06:43:40;;;;;;;3.70;1.90;;;;;;;8.18;46.79;101559.44;4987519;28;20046;-75
2023/10/17 06:46:12;;;;;;;3.95;2.00;;;;;;;8.19;46.71;101555.75;4984044;28;20045;-76
2023/10/17 06:48:48;;;;;;;3.95;2.17;;;;;;;8.18;46.82;101556.72;4987917;28;20054;-76
2023/10/17 06:51:30;;;;;;;4.45;2.35;;;;;;;8.20;46.84;101545.72;4985679;28;20062;-75
2023/10/17 06:54:05;;;;;;;4.32;2.05;;;;;;;8.22;46.56;101551.94;4989201;28;21398;-75
2023/10/17 06:56:41;;;;;;;5.13;2.13;;;;;;;8.22;46.38;101550.09;4984114;28;20047;-76
2023/10/17 06:59:22;;;;;;;4.75;2.22;;;;;;;8.21;46.66;101553.81;4987280;28;20043;-76
2023/10/17 07:02:10;;;;;;;4.65;2.33;;;;;;;8.24;46.51;101550.00;4985418;28;20060;-76
2023/10/17 07:04:40;;;;;;;3.70;2.10;;;;;;;8.23;46.44;101550.97;4987054;28;20100;-76
2023/10/17 07:07:09;;;;;;;3.53;2.00;;;;;;;8.24;46.21;101553.59;4983519;28;20065;-76
2023/10/17 07:09:39;;;;;;;3.85;1.92;;;;;;;8.25;46.34;101552.63;4985381;28;20358;-76
2023/10/17 07:12:15;;;;;;;4.18;1.88;;;;;;;8.27;46.63;101552.50;4986914;28;20076;-76
2023/10/17 07:14:48;;;;;;;3.45;1.73;;;;;;;8.26;46.38;101545.28;4987461;28;20426;-76
2023/10/17 07:17:28;;;;;;;4.90;1.85;;;;;;;8.24;46.36;101534.53;4976103;28;20502;-76
2023/10/17 07:20:00;;;;;;;3.60;1.85;;;;;;;8.26;46.54;101548.91;4985016;28;20549;-75
2023/10/17 07:22:35;;;;;;;3.87;2.10;;;;;;;8.25;46.36;101539.00;4986829;28;20482;-76
2023/10/17 07:25:14;;;;;;;4.07;2.00;;;;;;;8.29;46.29;101537.81;4989620;28;20049;-75
2023/10/17 07:27:45;;;;;;;3.53;2.08;;;;;;;8.30;46.28;101535.94;4991697;28;20487;-77
2023/10/17 07:30:14;;;;;;;5.38;2.00;;;;;;;8.30;46.56;101539.56;4988475;28;20413;-77
2023/10/17 07:32:49;;;;;;;5.65;1.92;;;;;;;8.32;46.29;101534.88;4985815;28;20097;-76
2023/10/17 07:35:23;;;;;;;3.20;2.00;;;;;;;8.33;46.18;101535.75;4997279;28;20050;-76
2023/10/17 07:37:56;;;;;;;5.22;2.13;;;;;;;8.33;46.41;101533.91;5001211;28;20057;-77
2023/10/17 07:40:41;;;;;;;4.63;2.10;;;;;;;8.37;46.18;101536.41;4986308;28;20060;-78
2023/10/17 07:43:11;;;;;;;4.90;2.40;;;;;;;8.37;46.19;101531.81;4986881;28;21329;-76
2023/10/17 07:45:42;;;;;;;3.60;2.15;;;;;;;8.39;46.57;101534.47;4986800;28;20069;-76
2023/10/17 07:48:21;;;;;;;3.25;1.98;;;;;;;8.40;46.17;101542.53;4984688;28;20077;-76
2023/10/17 07:50:51;;;;;;;2.95;1.80;;;;;;;8.41;46.17;101540.69;4985457;28;20157;-76
2023/10/17 07:53:22;;;;;;;3.95;1.88;;;;;;;8.44;46.15;101543.19;4987868;28;20081;-74
2023/10/17 07:55:54;;;;;;;3.17;1.63;;;;;;;8.47;46.29;101532.09;4988230;28;20978;-76
2023/10/17 07:58:38;;;;;;;4.18;2.05;;;;;;;8.48;46.10;101523.78;4985255;28;20456;-76
2023/10/17 08:01:14;;;;;;;2.97;1.70;;;;;;;8.48;46.61;101525.66;4986124;28;20124;-76
2023/10/17 08:03:51;;;;;;;2.95;1.90;;;;;;;8.52;46.16;101527.16;4986238;28;20581;-76
2023/10/17 08:06:22;;;;;;;5.15;1.80;;;;;;;8.52;46.52;101522.59;4987292;28;20088;-75
2023/10/17 08:08:52;;;;;;;3.40;1.90;;;;;;;8.56;46.21;101526.00;4985965;28;21115;-76
2023/10/17 08:11:27;;;;;;;3.05;1.83;;;;;;;8.57;46.19;101517.72;4987372;28;20472;-76
2023/10/17 08:14:01;;;;;;;4.50;2.10;;;;;;;8.61;45.81;101518.34;4988635;28;20057;-76
2023/10/17 08:16:32;;;;;;;4.97;1.77;;;;;;;8.62;46.45;101515.53;4985398;28;20046;-76
2023/10/17 08:19:12;;;;;;;4.05;1.80;;;;;;;8.64;46.05;101510.84;4985681;28;20080;-75
2023/10/17 08:21:49;;;;;;;2.70;1.58;;;;;;;8.67;45.82;101520.69;4988279;28;20057;-75
2023/10/17 08:24:26;;;;;;;3.45;1.95;;;;;;;8.69;45.84;101519.56;4995680;28;20046;-75
2023/10/17 08:29:42;;;;;;;4.43;1.75;;;;;;;8.74;45.81;101518.41;4986088;28;20047;-76
2023/10/17 08:32:38;;;;;;;3.55;1.75;;;;;;;8.74;46.28;101518.41;4987607;28;20046;-76
2023/10/17 08:35:18;;;;;;;3.95;1.70;;;;;;;8.76;45.76;101516.41;4985572;28;20050;-76
2023/10/17 08:37:46;;;;;;;3.90;1.60;;;;;;;8.78;45.97;101520.78;4986992;28;20053;-75
2023/10/17 08:40:29;;;;;;;3.65;1.52;;;;;;;8.82;46.08;101516.88;4987264;28;20070;-76
2023/10/17 08:42:59;;;;;;;2.55;1.30;;;;;;;8.84;46.02;101523.09;5003596;28;20137;-76
2023/10/17 08:45:31;;;;;;;4.43;1.67;;;;;;;8.88;45.44;101513.72;4983631;28;20057;-76
2023/10/17 08:48:00;;;;;;;3.08;1.50;;;;;;;8.89;45.83;101529.13;4987446;28;20065;-76
2023/10/17 08:50:30;;;;;;;2.72;1.40;;;;;;;8.93;45.68;101524.31;4987981;28;20050;-76
2023/10/17 08:52:59;;;;;;;2.88;1.40;;;;;;;8.97;45.47;101525.84;4985954;28;20441;-76
2023/10/17 08:55:28;;;;;;;2.75;1.33;;;;;;;8.99;45.71;101530.22;4989087;28;20053;-76
2023/10/17 08:57:56;;;;;;;3.65;1.77;;;;;;;9.02;45.64;101531.84;4983730;28;20485;-76
2023/10/17 09:00:48;;;;;;;5.07;1.80;;;;;;;9.04;45.57;101527.16;4986532;28;20080;-76
2023/10/17 09:03:23;;;;;;;5.03;1.95;;;;;;;9.06;45.61;101528.81;5010387;22;20136;-75
2023/10/17 09:06:06;;;;;;;2.90;1.60;;;;;;;9.10;45.70;101524.00;5023897;28;20054;-74
2023/10/17 09:11:33;;;;;;;2.38;1.38;;;;;;;9.14;45.70;101525.53;4967775;28;20046;-75
2023/10/17 09:14:15;;;;;;;2.42;1.40;;;;;;;9.19;45.68;101525.19;4978172;28;20425;-74
2023/10/17 09:17:03;;;;;;;3.28;1.40;;;;;;;9.24;45.40;101529.38;4996061;28;20077;-74
2023/10/17 09:19:46;;;;;;;2.75;1.30;;;;;;;9.30;45.08;101520.72;4997739;28;20114;-75
2023/10/17 09:22:20;;;;;;;3.85;1.65;;;;;;;9.36;45.53;101519.41;4996109;28;20160;-75
2023/10/17 09:24:49;;;;;;;2.92;1.42;;;;;;;9.42;45.84;101511.66;5011594;28;20168;-74
2023/10/17 09:27:19;;;;;;;3.45;1.35;;;;;;;9.53;45.94;101515.47;4994842;28;20128;-75
2023/10/17 09:29:50;;;;;;;2.30;1.42;;;;;;;9.61;46.03;101513.94;4997707;28;20062;-75
2023/10/17 09:32:35;;;;;;;3.65;1.40;;;;;;;9.71;44.51;101500.47;4996785;28;20418;-75
2023/10/17 09:35:10;;;;;;;2.97;1.50;;;;;;;9.79;45.04;101504.38;4994273;28;20070;-76
2023/10/17 09:37:41;;;;;;;2.78;1.30;;;;;;;9.91;45.98;101507.19;5015641;28;20081;-75
2023/10/17 09:40:18;;;;;;;4.55;1.25;;;;;;;10.01;45.48;101511.84;4996664;28;20587;-75
2023/10/17 09:42:47;;;;;;;4.15;1.52;;;;;;;10.11;45.37;101509.31;5003124;28;20785;-75
2023/10/17 09:45:16;;;;;;;2.95;1.30;;;;;;;10.20;44.58;101514.97;4974138;28;20494;-75
2023/10/17 09:47:53;;;;;;;2.00;1.02;;;;;;;10.30;43.63;101511.53;4983576;28;20057;-75
2023/10/17 09:50:25;;;;;;;2.00;1.10;;;;;;;10.38;43.44;101512.69;4993523;28;21191;-75
2023/10/17 09:52:56;;;;;;;1.75;1.00;;;;;;;10.48;43.71;101510.97;4978343;28;20525;-75
2023/10/17 09:55:25;;;;;;;2.50;1.02;;;;;;;10.55;43.55;101514.16;4995747;28;20485;-76
2023/10/17 09:57:59;;;;;;;3.45;1.30;;;;;;;10.64;43.34;101502.50;4997033;28;20076;-75
2023/10/17 10:00:36;;;;;;;3.22;1.20;;;;;;;10.74;42.53;101505.38;5002975;28;20166;-75
2023/10/17 10:03:06;;;;;;;2.40;1.08;;;;;;;10.82;43.34;101500.16;4987876;28;20054;-75
2023/10/17 10:05:43;;;;;;;3.95;1.17;;;;;;;10.91;42.88;101493.97;5006943;28;20509;-76
2023/10/17 10:08:32;;;;;;;1.95;1.17;;;;;;;11.00;41.51;101495.97;4980783;28;20053;-75
2023/10/17 10:11:01;;;;;;;1.58;0.90;;;;;;;11.09;42.80;101486.16;4995038;28;20058;-76
2023/10/17 10:13:31;;;;;;;2.35;1.10;;;;;;;11.18;42.71;101494.53;4998195;28;20078;-75
2023/10/17 10:16:01;;;;;;;2.78;1.00;;;;;;;11.28;42.93;101495.53;4992930;28;20108;-75
2023/10/17 10:18:57;;;;;;;2.65;1.23;;;;;;;11.39;40.79;101497.38;4991050;28;21296;-76
2023/10/17 10:21:59;;;;;;;1.33;0.93;;;;;;;11.48;40.93;101495.75;4977134;28;20260;-75
2023/10/17 10:24:29;;;;;;;1.85;1.00;;;;;;;11.54;41.88;101496.16;4989608;28;20042;-76
2023/10/17 10:27:20;;;;;;;2.20;1.10;;;;;;;11.62;39.19;101485.47;4993488;28;20054;-76
2023/10/17 10:29:52;;;;;;;1.02;0.90;;;;;;;11.68;41.38;101481.34;4993304;28;20547;-76
2023/10/17 10:32:30;;;;;;;2.23;1.03;;;;;;;11.76;39.69;101476.09;4990401;28;20056;-76
2023/10/17 10:34:58;;;;;;;1.70;0.90;;;;;;;11.80;40.95;101474.81;4992802;28;20050;-75
2023/10/17 10:37:28;;;;;;;2.30;1.02;;;;;;;11.87;40.35;101484.31;4991652;28;20510;-76
2023/10/17 10:40:17;;;;;;;2.78;1.30;;;;;;;11.92;37.95;101479.31;4989991;28;20441;-76
2023/10/17 10:42:47;;;;;;;2.25;1.00;;;;;;;11.92;40.01;101478.44;4986836;28;20052;-75
2023/10/17 10:45:29;;;;;;;1.55;0.85;;;;;;;12.01;38.47;101481.28;4977586;28;21036;-75
2023/10/17 10:48:00;;;;;;;1.73;0.90;;;;;;;12.03;39.70;101478.41;4980664;28;20115;-75
2023/10/17 10:50:30;;;;;;;1.77;0.90;;;;;;;12.10;39.73;101474.16;4987148;28;20054;-74
2023/10/17 10:53:01;;;;;;;1.60;1.00;;;;;;;12.15;39.44;101476.50;4976678;28;20042;-76
2023/10/17 10:55:30;;;;;;;2.42;1.10;;;;;;;12.19;40.02;101465.16;4995820;28;20061;-76
2023/10/17 10:58:04;;;;;;;1.27;1.00;;;;;;;12.26;39.19;101468.22;4976920;28;20046;-76
2023/10/17 11:00:32;;;;;;;1.73;1.00;;;;;;;12.30;39.62;101462.34;4988299;28;20050;-76
2023/10/17 11:03:01;;;;;;;1.52;0.90;;;;;;;12.34;39.22;101454.72;4986564;28;20054;-76
2023/10/17 11:05:29;;;;;;;1.50;1.00;;;;;;;12.37;39.35;101455.34;4982945;28;20144;-76
2023/10/17 11:08:02;;;;;;;2.08;1.10;;;;;;;12.46;38.63;101459.16;4995512;28;20124;-77
2023/10/17 11:10:31;;;;;;;1.92;1.00;;;;;;;12.48;38.71;101451.66;4995084;28;20200;-75
2023/10/17 11:12:59;;;;;;;2.55;1.10;;;;;;;12.51;39.08;101445.91;4993960;28;20046;-77
2023/10/17 11:15:32;;;;;;;2.13;0.90;;;;;;;12.50;38.37;101442.28;4992557;28;20413;-77
2023/10/17 11:18:06;;;;;;;2.38;1.10;;;;;;;12.59;37.99;101446.13;4993861;28;20053;-77
2023/10/17 11:20:35;;;;;;;2.72;1.20;;;;;;;12.58;38.59;101444.38;4994110;28;20053;-75
2023/10/17 11:23:07;;;;;;;1.95;0.90;;;;;;;12.65;37.73;101448.34;4994976;28;20262;-75
2023/10/17 11:25:36;;;;;;;1.70;0.87;;;;;;;12.65;38.16;101440.13;4994416;28;20052;-75
2023/10/17 11:28:06;;;;;;;2.45;1.00;;;;;;;12.74;38.25;101435.69;4994807;28;20041;-77
2023/10/17 11:30:40;;;;;;;1.27;0.70;;;;;;;12.77;38.06;101436.31;4994060;28;20041;-75
2023/10/17 11:33:11;;;;;;;2.13;1.00;;;;;;;12.82;37.96;101430.41;4996036;28;20042;-76
2023/10/17 11:35:46;;;;;;;1.75;1.08;;;;;;;12.89;36.91;101426.09;4995346;28;20056;-75
2023/10/17 11:38:33;;;;;;;1.48;0.90;;;;;;;12.88;34.27;101422.47;4991440;28;20504;-75
2023/10/17 11:41:15;;;;;;;1.48;0.93;;;;;;;12.95;38.15;101425.56;4992571;28;20054;-76
2023/10/17 11:43:50;;;;;;;1.80;1.10;;;;;;;12.99;37.79;101429.78;4995583;28;20132;-76
2023/10/17 11:46:28;;;;;;;2.45;1.15;;;;;;;13.07;35.56;101418.09;4995106;28;20077;-76
2023/10/17 11:49:15;;;;;;;2.40;1.00;;;;;;;13.09;35.81;101403.22;4994983;28;20057;-76
2023/10/17 11:51:43;;;;;;;1.77;1.08;;;;;;;13.12;37.51;101400.19;4992292;28;20054;-76
2023/10/17 11:54:12;;;;;;;2.15;1.13;;;;;;;13.18;36.71;101393.28;4993072;28;20499;-76
2023/10/17 11:57:11;;;;;;;2.15;1.00;;;;;;;13.23;35.91;101402.84;4994362;28;20062;-76
2023/10/17 11:59:39;;;;;;;2.35;1.60;;;;;;;13.25;37.15;101402.72;4992155;28;20485;-75
2023/10/17 12:02:11;;;;;;;2.35;1.10;;;;;;;13.28;36.22;101399.69;4993190;28;20046;-76
2023/10/17 12:04:39;;;;;;;1.80;1.20;;;;;;;13.30;36.86;101399.53;4993892;28;20072;-76
2023/10/17 12:07:07;;;;;;;1.30;1.10;;;;;;;13.36;36.47;101399.00;4992092;28;20046;-76
2023/10/17 12:09:36;;;;;;;2.15;1.13;;;;;;;13.40;36.64;101404.06;4994753;28;20137;-76
2023/10/17 12:12:06;;;;;;;2.33;1.13;;;;;;;13.43;36.29;101389.19;4994219;28;20144;-75
2023/10/17 12:14:35;;;;;;;1.73;1.00;;;;;;;13.45;36.22;101387.13;4994919;28;20050;-76
2023/10/17 12:17:03;;;;;;;2.83;1.20;;;;;;;13.48;36.58;101390.50;5009242;28;20049;-76
2023/10/17 12:19:32;;;;;;;2.70;1.20;;;;;;;13.53;36.46;101373.59;4993644;28;20877;-76
2023/10/17 12:22:00;;;;;;;1.75;0.90;;;;;;;13.55;36.35;101372.41;4992308;28;20057;-76
2023/10/17 12:24:34;;;;;;;1.95;1.20;;;;;;;13.58;36.40;101374.91;4993039;28;20053;-76
2023/10/17 12:27:06;;;;;;;1.90;1.00;;;;;;;13.63;36.47;101378.09;4991946;28;20061;-75
2023/10/17 12:29:35;;;;;;;2.10;1.02;;;;;;;13.64;36.63;101376.22;4994731;28;20524;-76
2023/10/17 12:32:05;;;;;;;2.25;1.10;;;;;;;13.69;35.90;101373.94;4992894;28;20060;-75
2023/10/17 12:34:33;;;;;;;1.52;1.10;;;;;;;13.74;36.49;101366.13;4993391;28;20056;-76
2023/10/17 12:37:03;;;;;;;1.35;0.90;;;;;;;13.77;35.78;101360.34;4992015;28;21317;-76
2023/10/17 12:39:32;;;;;;;1.50;1.00;;;;;;;13.80;35.39;101354.53;4994356;28;20634;-76
2023/10/17 12:42:00;;;;;;;1.52;0.90;;;;;;;13.84;36.04;101352.38;4993383;28;20081;-75
2023/10/17 12:44:31;;;;;;;2.42;1.08;;;;;;;13.88;35.37;101351.06;4993892;28;20104;-76
2023/10/17 12:47:00;;;;;;;1.80;1.20;;;;;;;13.90;35.69;101340.78;5008647;28;20088;-75
2023/10/17 12:49:28;;;;;;;1.40;0.95;;;;;;;13.92;35.75;101339.63;5009735;28;20085;-76
2023/10/17 12:51:57;;;;;;;3.72;1.25;;;;;;;13.95;35.31;101325.56;4992153;28;20131;-76
2023/10/17 12:54:26;;;;;;;2.55;1.05;;;;;;;13.97;35.36;101333.69;4993894;28;20084;-76
2023/10/17 12:56:55;;;;;;;1.33;0.80;;;;;;;13.99;34.69;101317.91;4992315;28;20049;-76
2023/10/17 12:59:24;;;;;;;1.25;0.88;;;;;;;14.01;35.28;101318.63;4993203;28;20049;-76
2023/10/17 13:01:54;;;;;;;1.30;0.77;;;;;;;14.04;35.02;101309.19;4991311;28;20064;-76
2023/10/17 13:04:23;;;;;;;1.38;0.88;;;;;;;14.03;35.50;101305.56;4990193;28;20054;-76
2023/10/17 13:06:53;;;;;;;1.95;0.90;;;;;;;14.05;34.89;101302.69;4989842;28;20050;-76
2023/10/17 13:09:22;;;;;;;2.03;0.90;;;;;;;14.05;35.31;101305.44;4992570;28;20451;-76
2023/10/17 13:11:50;;;;;;;1.33;0.80;;;;;;;14.06;35.01;101302.53;5015094;28;20942;-76
2023/10/17 13:14:18;;;;;;;3.30;0.90;;;;;;;14.07;34.82;101306.16;4992435;28;20432;-76
2023/10/17 13:16:46;;;;;;;1.08;0.82;;;;;;;14.07;34.48;101297.91;4994605;28;20120;-76
2023/10/17 13:19:18;;;;;;;1.63;0.75;;;;;;;14.08;33.97;101299.66;4995168;28;20062;-76
2023/10/17 13:21:46;;;;;;;1.88;0.93;;;;;;;14.04;34.32;101295.44;4992120;28;20542;-76